Thursday, October 23, 2014
00:42 UTC
  |  Log In   |  Register Free
Airport Search:

Kingsville Nas Airport
(KNQI)

FAA data valid effective September 18, 2014 - November 13, 2014 (unless otherwise noted).

 
 
 
 
 
 
 
 
 
 
 
 
 
 

Current Aviation Weather for Kingsville Nas Airport (KNQI)

The most recent METAR observation for KNQI was updated at: 0013
METAR Summary (Translated METAR)
KNQI
222356Z 09008KT 10SM FEW031 26/19 A3002 RMK AO2 SLP163 T02560194 10311 20256 53014
KRBO
222350Z AUTO 10007KT 7SM +RA CLR 26/19 A3003 RMK AO2 T02560187 10293 20256
(17.5 nm NE from KNQI)
KALI
222353Z AUTO 09009KT 10SM CLR 26/17 A3002 RMK AO2 SLP163 T02560172 10311 20256 53013
(18.2 nm NW from KNQI)
TAF Summary (Translated TAF)
KNQI
2223/2323 09011G16KT 9999 SCT045 QNH2998INS TEMPO 2300/2303 08008KT FEW025 BECMG 2302/2303 VRB06KT 9999 FEW015 FEW250 QNH3000INS TEMPO 2305/2311 SCT015 BKN200 FM231400 03006KT 9999 FEW020 SCT030 BKN250 QNH3006INS FM231800 06010KT 9999 SCT040 SCT150 BKN250 QNH2999INS AUTOMATED SENSOR METWATCH 2305 TIL 2312 T17/2311Z T31/2320Z FN20042
KALI
(18.2 nm NW from KNQI)
221724Z 2218/2318 09011G19KT P6SM FEW027 SCT035 FM230200 VRB06KT P6SM SCT018 BKN120 TEMPO 2310/2314 5SM BR
  Airport Weather Conditions for KNQI

 Current Weather at NQI
78° F
A Few Clouds
East winds at 9.2 mph
NQI NOAA Radar

Pressure: 30.02 in
Humidity: 69%
Wind: East at 9.2 MPH (8 KT)
Dew Point: 66.9°F
Visibility: 10.00 mi


Airport Weather Forecast for KNQI

Translated METAR and TAF for KNQI
Translated METAR for KNQI (0037 UTC 23 October 2014)
found at http://aviationweather.gov/adds/metars/
 
METAR text: KNQI 222356Z 09008KT 10SM FEW031 26/19 A3002 RMK AO2 SLP163 T02560194 10311 20256 53014
Conditions at: KNQI (KINGSVILLE NAS , TX, US) observed 2356 UTC 22 October 2014
Temperature: 25.6°C (78°F)
Dewpoint: 19.4°C (67°F) [RH = 69%]
Pressure (altimeter): 30.02 inches Hg (1016.7 mb)
[Sea-level pressure: 1016.3 mb]
Winds: from the E (90 degrees) at 9 MPH (8 knots; 4.2 m/s)
Visibility: 10 or more miles (16+ km)
Ceiling: at least 12,000 feet AGL
Clouds: few clouds at 3100 feet AGL
Weather: no significant weather observed at this time
Translated TAF for KNQI
Forecast for: KNQI (KINGSVILLE NAS , TX, US)
TAF Text: TAF KNQI 2223/2323 09011G16KT 9999 SCT045 QNH2998INS
Forecast period: 2300 UTC 22 October 2014 to 0200 UTC 23 October 2014
Forecast type: FROM: standard forecast or significant change
Winds: from the E (90 degrees) at 13 MPH (11 knots; 5.7 m/s)
gusting to 18 MPH (16 knots; 8.3 m/s)
Visibility: 6 or more miles (10+ km)
Clouds: scattered clouds at 4500 feet AGL
Weather: no significant weather forecast for this period
TAF Text: TEMPO 2300/2303 08008KT FEW025
Forecast period: 0000 to 0300 UTC 23 October 2014
Forecast type: TEMPORARY: The following changes expected for less than half the time period
Winds: from the E (80 degrees) at 9 MPH (8 knots; 4.2 m/s)
Clouds: few clouds at 2500 feet AGL
Weather: no significant weather forecast for this period
TAF Text: BECMG 2302/2303 VRB06KT 9999 FEW015 FEW250 QNH3000INS
Forecast period: 0200 to 1400 UTC 23 October 2014
Forecast type: BECOMING: Conditions expected to become as follows by 0300 UTC 23 October 2014
Winds: variable direction winds at 7 MPH (6 knots; 3.1 m/s)
Visibility: 6 or more miles (10+ km)
Clouds: few clouds at 1500 feet AGL
few clouds at 25000 feet AGL
Weather: no significant weather forecast for this period
TAF Text: TEMPO 2305/2311 SCT015 BKN200
Forecast period: 0500 to 1100 UTC 23 October 2014
Forecast type: TEMPORARY: The following changes expected for less than half the time period
Ceiling: 20000 feet AGL
Clouds: scattered clouds at 1500 feet AGL
broken clouds at 20000 feet AGL
Weather: no significant weather forecast for this period
TAF Text: FM231400 03006KT 9999 FEW020 SCT030 BKN250 QNH3006INS
Forecast period: 1400 to 1800 UTC 23 October 2014
Forecast type: FROM: standard forecast or significant change
Winds: from the NNE (30 degrees) at 7 MPH (6 knots; 3.1 m/s)
Visibility: 6 or more miles (10+ km)
Ceiling: 25000 feet AGL
Clouds: few clouds at 2000 feet AGL
scattered clouds at 3000 feet AGL
broken clouds at 25000 feet AGL
Weather: no significant weather forecast for this period
TAF Text: FM231800 06010KT 9999 SCT040 SCT150 BKN250 QNH2999INS AUTOMATED SENSOR METWATCH 2305 TIL 2312 T17/2311Z T31/2320Z FN20042
Forecast period: 1800 to 2300 UTC 23 October 2014
Forecast type: FROM: standard forecast or significant change
Winds: from the ENE (60 degrees) at 12 MPH (10 knots; 5.2 m/s)
Visibility: 6 or more miles (10+ km)
Ceiling: 25000 feet AGL
Clouds: scattered clouds at 4000 feet AGL
scattered clouds at 15000 feet AGL
broken clouds at 25000 feet AGL
Weather: no significant weather forecast for this period

Find All Airport Services Find A Hotel Find A Rental Car Find A Golf Course Find A Restaurant $100 Hamburger



FBO's on the Field
FBO Company Facility Photos Services Transportation Aviation Fuel Prices: Prices include tax
Catering Weather Repair Courtesy Rental Type 100LL JetA JetA+ MOGAS 8087
 
Add another FBO Facility Photos Catering Weather Repair Courtesy Rental Type 100LL JetA JetA+ MOGAS 8087
Services Transportation Aviation Fuel Prices: Prices include tax
There are no FBO's currently reporting fuel at NQI. List your FBO now


model-print
model-print
model-print
model-print